createdAt,value
2023-09-08T00:01:21.037Z,5.00
2023-09-08T00:03:50.210Z,4.40
2023-09-08T00:06:22.058Z,4.80
2023-09-08T00:09:00.749Z,4.20
2023-09-08T00:11:38.787Z,4.60
2023-09-08T00:14:07.756Z,4.10
2023-09-08T00:16:39.404Z,4.80
2023-09-08T00:19:18.947Z,4.90
2023-09-08T00:21:59.642Z,5.60
2023-09-08T00:24:28.501Z,4.50
2023-09-08T00:28:37.685Z,4.60
2023-09-08T00:31:06.692Z,4.40
2023-09-08T00:33:39.155Z,5.00
2023-09-08T00:36:28.203Z,4.40
2023-09-08T00:39:20.620Z,3.90
2023-09-08T00:41:51.723Z,4.10
2023-09-08T00:44:27.822Z,4.50
2023-09-08T00:47:01.526Z,4.60
2023-09-08T00:49:47.888Z,4.60
2023-09-08T00:54:06.267Z,5.10
2023-09-08T00:56:38.575Z,4.90
2023-09-08T00:59:10.608Z,4.50
2023-09-08T01:01:45.358Z,4.80
2023-09-08T01:04:17.207Z,5.20
2023-09-08T01:06:46.795Z,4.90
2023-09-08T01:09:18.997Z,5.20
2023-09-08T01:12:08.059Z,5.30
2023-09-08T01:14:57.989Z,4.90
2023-09-08T01:17:34.936Z,4.70
2023-09-08T01:20:17.426Z,4.90
2023-09-08T01:22:51.598Z,4.60
2023-09-08T01:25:25.302Z,5.10
2023-09-08T01:28:02.496Z,5.40
2023-09-08T01:30:36.393Z,5.00
2023-09-08T01:33:21.042Z,4.50
2023-09-08T01:35:52.877Z,4.40
2023-09-08T01:38:23.803Z,4.10
2023-09-08T01:40:57.422Z,4.20
2023-09-08T01:43:38.450Z,5.20
2023-09-08T01:48:48.287Z,4.40
2023-09-08T01:51:26.051Z,4.10
2023-09-08T01:53:57.811Z,3.90
2023-09-08T01:56:29.000Z,4.80
2023-09-08T01:58:57.934Z,4.60
2023-09-08T02:01:35.784Z,4.80
2023-09-08T02:04:34.094Z,5.00
2023-09-08T02:07:35.096Z,4.50
2023-09-08T02:10:17.970Z,3.90
2023-09-08T02:13:24.210Z,3.80
2023-09-08T02:16:07.287Z,3.60
2023-09-08T02:18:51.720Z,4.40
2023-09-08T02:21:37.914Z,4.60
2023-09-08T02:24:23.167Z,4.70
2023-09-08T02:26:54.450Z,4.60
2023-09-08T02:29:49.035Z,4.60
2023-09-08T02:32:23.039Z,4.20
2023-09-08T02:34:53.886Z,4.00
2023-09-08T02:37:27.974Z,4.30
2023-09-08T02:39:59.639Z,4.70
2023-09-08T02:42:42.513Z,4.70
2023-09-08T02:45:13.753Z,4.90
2023-09-08T02:50:28.870Z,3.90
2023-09-08T02:55:04.397Z,3.80
2023-09-08T02:58:45.704Z,5.30
2023-09-08T03:01:44.515Z,4.20
2023-09-08T03:04:18.212Z,4.50
2023-09-08T03:06:48.498Z,4.50
2023-09-08T03:12:19.521Z,3.00
2023-09-08T03:15:05.385Z,4.20
2023-09-08T03:17:39.655Z,4.60
2023-09-08T03:20:14.908Z,4.50
2023-09-08T03:22:46.902Z,4.90
2023-09-08T03:25:18.423Z,4.50
2023-09-08T03:28:00.203Z,3.80
2023-09-08T03:30:38.845Z,3.80
2023-09-08T03:33:14.744Z,4.40
2023-09-08T03:36:08.438Z,4.70
2023-09-08T03:41:37.887Z,5.10
2023-09-08T03:45:10.999Z,5.00
2023-09-08T03:47:50.940Z,4.50
2023-09-08T03:50:28.057Z,4.20
2023-09-08T03:53:03.176Z,4.40
2023-09-08T03:55:38.796Z,4.60
2023-09-08T03:58:05.623Z,4.90
2023-09-08T04:00:32.542Z,5.80
2023-09-08T04:03:01.698Z,5.30
2023-09-08T04:05:34.960Z,4.70
2023-09-08T04:08:02.053Z,4.60
2023-09-08T04:10:32.753Z,5.30
2023-09-08T04:13:06.437Z,5.00
2023-09-08T04:15:40.900Z,5.40
2023-09-08T04:19:58.240Z,4.50
2023-09-08T04:23:39.434Z,4.50
2023-09-08T04:26:30.988Z,4.20
2023-09-08T04:29:00.246Z,5.90
2023-09-08T04:34:00.789Z,4.80
2023-09-08T04:36:40.551Z,5.20
2023-09-08T04:39:41.024Z,4.70
2023-09-08T04:42:11.299Z,4.80
2023-09-08T04:47:10.296Z,4.70
2023-09-08T04:49:41.773Z,4.60
2023-09-08T04:52:12.163Z,4.60
2023-09-08T04:54:39.894Z,5.10
2023-09-08T04:57:16.593Z,4.80
2023-09-08T04:59:49.658Z,4.20
2023-09-08T05:02:19.033Z,4.60
2023-09-08T05:06:20.639Z,4.70
2023-09-08T05:09:07.748Z,5.00
2023-09-08T05:12:00.017Z,5.30
2023-09-08T05:14:41.241Z,4.40
2023-09-08T05:17:17.277Z,5.20
2023-09-08T05:19:53.731Z,4.70
2023-09-08T05:22:36.049Z,4.40
2023-09-08T05:25:09.985Z,5.20
2023-09-08T05:27:41.283Z,5.00
2023-09-08T05:30:21.052Z,5.20
2023-09-08T05:32:58.565Z,4.80
2023-09-08T05:35:27.665Z,4.90
2023-09-08T05:39:53.430Z,5.60
2023-09-08T05:42:31.962Z,5.80
2023-09-08T05:45:02.956Z,5.00
2023-09-08T05:47:39.250Z,5.70
2023-09-08T05:50:08.281Z,5.50
2023-09-08T05:52:42.558Z,6.40
2023-09-08T05:55:14.777Z,6.20
2023-09-08T05:57:43.676Z,6.20
2023-09-08T06:00:13.808Z,6.50
2023-09-08T06:03:45.691Z,5.70
2023-09-08T06:06:14.943Z,5.50
2023-09-08T06:08:52.050Z,5.80
2023-09-08T06:11:28.785Z,5.20
2023-09-08T06:14:00.724Z,5.60
2023-09-08T06:16:29.830Z,6.30
2023-09-08T06:19:01.158Z,6.30
2023-09-08T06:21:43.927Z,5.50
2023-09-08T06:24:25.867Z,5.60
2023-09-08T06:27:51.132Z,6.50
2023-09-08T06:30:28.422Z,5.90
2023-09-08T06:32:57.624Z,5.40
2023-09-08T06:35:27.398Z,5.40
2023-09-08T06:37:56.512Z,5.10
2023-09-08T06:40:25.351Z,5.60
2023-09-08T06:42:58.669Z,5.00
2023-09-08T06:45:31.640Z,5.00
2023-09-08T06:48:01.734Z,4.90
2023-09-08T06:50:36.701Z,5.10
2023-09-08T06:53:13.800Z,5.10
2023-09-08T06:55:45.862Z,5.80
2023-09-08T06:58:18.309Z,5.50
2023-09-08T07:00:47.793Z,5.20
2023-09-08T07:03:17.051Z,5.50
2023-09-08T07:05:46.536Z,5.60
2023-09-08T07:08:15.456Z,5.00
2023-09-08T07:14:40.920Z,4.50
2023-09-08T07:17:10.007Z,4.40
2023-09-08T07:24:19.604Z,4.50
2023-09-08T07:26:48.735Z,4.50
2023-09-08T07:29:17.888Z,5.00
2023-09-08T07:31:46.799Z,4.80
2023-09-08T07:34:15.659Z,4.90
2023-09-08T07:36:44.563Z,4.90
2023-09-08T07:39:13.490Z,4.40
2023-09-08T07:41:42.568Z,4.80
2023-09-08T07:44:11.459Z,4.70
2023-09-08T07:46:40.289Z,4.30
2023-09-08T07:49:09.097Z,4.60
2023-09-08T07:51:37.949Z,4.40
2023-09-08T07:54:07.221Z,4.20
2023-09-08T07:56:36.356Z,4.60
2023-09-08T07:59:08.978Z,4.10
2023-09-08T08:01:37.970Z,4.10
2023-09-08T08:04:07.153Z,4.10
2023-09-08T08:06:36.604Z,3.80
2023-09-08T08:09:08.680Z,3.80
2023-09-08T08:11:40.406Z,4.50
2023-09-08T08:14:09.344Z,4.00
2023-09-08T08:16:38.217Z,3.90
2023-09-08T08:19:17.570Z,3.90
2023-09-08T08:21:46.480Z,3.60
2023-09-08T08:24:15.511Z,3.80
2023-09-08T08:26:44.342Z,3.90
2023-09-08T08:29:13.349Z,3.70
2023-09-08T08:31:42.299Z,3.40
2023-09-08T08:34:11.288Z,3.70
2023-09-08T08:36:56.470Z,3.60
2023-09-08T08:39:26.239Z,4.10
2023-09-08T08:41:56.317Z,3.40
2023-09-08T08:44:26.269Z,3.30
2023-09-08T08:46:59.909Z,3.70
2023-09-08T08:49:32.666Z,3.50
2023-09-08T08:52:08.353Z,3.30
2023-09-08T08:54:40.554Z,3.30
2023-09-08T08:57:10.806Z,3.20
2023-09-08T08:59:40.327Z,3.10
2023-09-08T09:02:11.160Z,3.00
2023-09-08T09:04:42.490Z,2.50
2023-09-08T09:07:13.800Z,3.00
2023-09-08T09:09:43.822Z,3.10
2023-09-08T09:12:16.620Z,2.80
2023-09-08T09:14:48.797Z,2.70
2023-09-08T09:17:18.258Z,2.60
2023-09-08T09:19:47.892Z,2.60
2023-09-08T09:22:21.216Z,2.40
2023-09-08T09:24:51.186Z,2.50
2023-09-08T09:27:23.131Z,2.20
2023-09-08T09:29:53.268Z,2.10
2023-09-08T09:32:26.162Z,1.90
2023-09-08T09:34:56.556Z,2.50
2023-09-08T09:39:55.687Z,2.10
2023-09-08T09:42:25.682Z,2.10
2023-09-08T09:44:55.499Z,1.90
2023-09-08T09:47:25.663Z,2.00
2023-09-08T09:49:55.226Z,2.30
2023-09-08T09:52:44.153Z,2.30
2023-09-08T09:55:43.875Z,1.80
2023-09-08T09:58:17.148Z,2.10
2023-09-08T10:00:49.811Z,2.20
2023-09-08T10:03:27.212Z,1.80
2023-09-08T10:06:34.270Z,1.70
2023-09-08T10:09:09.688Z,1.70
2023-09-08T10:11:42.062Z,2.50
2023-09-08T10:14:13.413Z,1.60
2023-09-08T10:16:45.092Z,2.00
2023-09-08T10:19:16.007Z,1.80
2023-09-08T10:21:49.115Z,2.10
2023-09-08T10:24:39.775Z,2.30
2023-09-08T10:27:11.032Z,2.00
2023-09-08T10:29:41.118Z,1.90
2023-09-08T10:32:11.482Z,2.00
2023-09-08T10:34:43.138Z,1.90
2023-09-08T10:37:22.098Z,2.90
2023-09-08T10:39:52.557Z,2.30
2023-09-08T10:42:23.167Z,2.10
2023-09-08T10:45:06.332Z,2.20
2023-09-08T10:47:48.969Z,2.40
2023-09-08T10:50:20.451Z,2.60
2023-09-08T10:53:25.360Z,2.30
2023-09-08T10:58:49.498Z,2.00
2023-09-08T11:01:19.700Z,2.20
2023-09-08T11:03:52.224Z,2.00
2023-09-08T11:06:31.893Z,2.40
2023-09-08T11:09:07.734Z,2.40
2023-09-08T11:11:41.811Z,2.20
2023-09-08T11:14:14.448Z,2.10
2023-09-08T11:16:45.599Z,2.30
2023-09-08T11:19:15.449Z,2.40
2023-09-08T11:21:44.818Z,2.30
2023-09-08T11:24:16.688Z,2.40
2023-09-08T11:26:47.787Z,2.30
2023-09-08T11:29:16.647Z,2.50
2023-09-08T11:31:45.704Z,2.40
2023-09-08T11:34:15.861Z,2.90
2023-09-08T11:36:44.715Z,2.70
2023-09-08T11:39:13.956Z,2.20
2023-09-08T11:41:43.162Z,2.10
2023-09-08T11:44:16.356Z,2.40
2023-09-08T11:46:45.668Z,2.40
2023-09-08T11:49:15.206Z,2.40
2023-09-08T11:51:44.427Z,2.20
2023-09-08T11:54:13.744Z,2.40
2023-09-08T11:56:43.112Z,2.60
2023-09-08T11:59:16.536Z,2.00
2023-09-08T12:01:45.968Z,2.70
2023-09-08T12:04:19.965Z,2.30
2023-09-08T12:06:49.805Z,2.40
2023-09-08T12:09:19.302Z,2.40
2023-09-08T12:11:50.769Z,2.30
2023-09-08T12:14:19.622Z,2.10
2023-09-08T12:16:48.469Z,1.80
2023-09-08T12:19:38.138Z,2.10
2023-09-08T12:22:11.672Z,2.30
2023-09-08T12:24:47.291Z,2.10
2023-09-08T12:27:17.378Z,2.00
2023-09-08T12:30:00.829Z,2.00
2023-09-08T12:32:35.413Z,2.10
2023-09-08T12:35:07.599Z,1.80
2023-09-08T12:37:45.608Z,2.10
2023-09-08T12:40:16.513Z,2.10
2023-09-08T12:42:52.179Z,1.70
2023-09-08T12:45:26.448Z,1.80
2023-09-08T12:47:59.714Z,2.30
2023-09-08T12:50:28.918Z,1.90
2023-09-08T12:53:00.914Z,2.00
2023-09-08T12:55:29.910Z,2.00
2023-09-08T12:57:59.236Z,1.90
2023-09-08T13:00:29.242Z,2.10
2023-09-08T13:03:03.327Z,2.00
2023-09-08T13:05:36.732Z,1.90
2023-09-08T13:08:08.585Z,2.10
2023-09-08T13:10:37.683Z,2.20
2023-09-08T13:13:06.617Z,1.80
2023-09-08T13:15:35.764Z,2.10
2023-09-08T13:18:04.917Z,1.80
2023-09-08T13:20:33.836Z,1.90
2023-09-08T13:23:13.676Z,2.00
2023-09-08T13:25:47.392Z,1.90
2023-09-08T13:28:16.314Z,1.80
2023-09-08T13:30:47.021Z,1.90
2023-09-08T13:33:16.112Z,2.40
2023-09-08T13:35:45.043Z,1.90
2023-09-08T13:38:15.982Z,2.30
2023-09-08T13:40:44.854Z,1.90
2023-09-08T13:43:14.121Z,2.10
2023-09-08T13:45:45.622Z,2.00
2023-09-08T13:48:17.121Z,1.70
2023-09-08T13:50:54.009Z,1.90
2023-09-08T13:53:41.751Z,2.00
2023-09-08T13:56:15.394Z,2.00
2023-09-08T13:58:50.496Z,2.30
2023-09-08T14:01:26.703Z,2.20
2023-09-08T14:06:39.769Z,2.20
2023-09-08T14:14:19.071Z,2.40
2023-09-08T14:16:48.181Z,2.90
2023-09-08T14:19:19.495Z,2.20
2023-09-08T14:21:50.141Z,2.60
2023-09-08T14:24:19.049Z,2.80
2023-09-08T14:26:52.605Z,2.60
2023-09-08T14:29:25.840Z,2.50
2023-09-08T14:31:54.876Z,2.30
2023-09-08T14:34:23.814Z,3.20
2023-09-08T14:36:52.781Z,2.80
2023-09-08T14:39:21.898Z,2.20
2023-09-08T14:41:55.145Z,2.00
2023-09-08T14:44:26.789Z,2.20
2023-09-08T14:46:55.772Z,3.00
2023-09-08T14:49:33.490Z,4.60
2023-09-08T14:52:02.387Z,3.90
2023-09-08T14:54:35.255Z,2.80
2023-09-08T14:57:04.392Z,4.40
2023-09-08T14:59:35.382Z,2.30
2023-09-08T15:02:07.491Z,2.50
2023-09-08T15:04:36.445Z,2.70
2023-09-08T15:07:06.575Z,2.30
2023-09-08T15:09:37.607Z,4.00
2023-09-08T15:12:21.671Z,3.20
2023-09-08T15:14:56.922Z,2.70
2023-09-08T15:17:23.671Z,3.20
2023-09-08T15:20:03.367Z,3.00
2023-09-08T15:22:37.081Z,4.10
2023-09-08T15:25:14.975Z,3.00
2023-09-08T15:27:52.484Z,2.60
2023-09-08T15:30:23.673Z,2.60
2023-09-08T15:32:56.099Z,2.50
2023-09-08T15:35:27.850Z,3.40
2023-09-08T15:37:57.934Z,2.70
2023-09-08T15:40:26.892Z,3.10
2023-09-08T15:42:57.058Z,3.30
2023-09-08T15:45:26.044Z,3.90
2023-09-08T15:47:58.698Z,2.80
2023-09-08T15:50:28.658Z,2.90
2023-09-08T15:52:57.571Z,4.50
2023-09-08T15:55:31.141Z,5.40
2023-09-08T15:58:00.171Z,3.40
2023-09-08T16:00:29.166Z,2.80
2023-09-08T16:02:59.236Z,2.50
2023-09-08T16:05:28.604Z,2.70
2023-09-08T16:07:57.489Z,2.50
2023-09-08T16:10:27.258Z,2.70
2023-09-08T16:12:58.702Z,3.60
2023-09-08T16:15:28.553Z,2.80
2023-09-08T16:17:58.153Z,2.90
2023-09-08T16:20:30.132Z,2.90
2023-09-08T16:23:03.823Z,2.80
2023-09-08T16:25:35.088Z,2.60
2023-09-08T16:28:12.606Z,2.80
2023-09-08T16:30:41.525Z,3.00
2023-09-08T16:33:10.777Z,2.90
2023-09-08T16:35:41.438Z,2.80
2023-09-08T16:38:14.034Z,3.20
2023-09-08T16:40:44.835Z,2.90
2023-09-08T16:43:16.549Z,3.30
2023-09-08T16:45:47.655Z,2.90
2023-09-08T16:48:36.762Z,2.80
2023-09-08T16:51:08.369Z,3.10
2023-09-08T16:53:38.138Z,3.10
2023-09-08T16:56:10.316Z,3.30
2023-09-08T16:58:39.177Z,2.80
2023-09-08T17:01:12.658Z,2.90
2023-09-08T17:03:41.788Z,3.00
2023-09-08T17:06:33.265Z,3.30
2023-09-08T17:09:01.758Z,5.50
2023-09-08T17:11:31.251Z,3.50
2023-09-08T17:14:03.896Z,3.90
2023-09-08T17:16:38.144Z,4.20
2023-09-08T17:19:07.359Z,3.90
2023-09-08T17:21:38.568Z,3.20
2023-09-08T17:24:09.003Z,3.50
2023-09-08T17:26:37.854Z,3.40
2023-09-08T17:29:16.050Z,3.50
2023-09-08T17:31:44.849Z,3.40
2023-09-08T17:34:23.622Z,3.50
2023-09-08T17:36:56.991Z,3.80
2023-09-08T17:40:34.066Z,3.40
2023-09-08T17:43:05.726Z,3.60
2023-09-08T17:45:35.417Z,3.20
2023-09-08T17:48:14.145Z,3.60
2023-09-08T17:50:46.290Z,3.20
2023-09-08T17:53:15.273Z,3.70
2023-09-08T17:55:44.212Z,3.70
2023-09-08T17:58:14.030Z,3.40
2023-09-08T18:00:43.990Z,3.40
2023-09-08T18:03:15.979Z,3.20
2023-09-08T18:05:49.341Z,2.90
2023-09-08T18:08:20.818Z,3.30
2023-09-08T18:10:49.769Z,3.50
2023-09-08T18:13:19.592Z,3.70
2023-09-08T18:18:22.279Z,3.80
2023-09-08T18:20:52.015Z,3.60
2023-09-08T18:23:23.251Z,4.00
2023-09-08T18:25:55.813Z,3.80
2023-09-08T18:28:27.022Z,3.80
2023-09-08T18:30:58.828Z,4.20
2023-09-08T18:33:28.042Z,3.50
2023-09-08T18:36:05.118Z,4.10
2023-09-08T18:38:35.253Z,3.70
2023-09-08T18:41:04.494Z,4.00
2023-09-08T18:45:20.626Z,3.90
2023-09-08T18:47:53.586Z,4.10
2023-09-08T18:50:22.502Z,4.50
2023-09-08T18:52:55.913Z,3.90
2023-09-08T18:55:27.539Z,4.40
2023-09-08T18:57:57.549Z,4.40
2023-09-08T19:00:26.914Z,4.50
2023-09-08T19:02:56.319Z,5.10
2023-09-08T19:05:26.113Z,4.40
2023-09-08T19:07:57.546Z,4.70
2023-09-08T19:14:16.015Z,5.00
2023-09-08T19:16:47.066Z,5.10
2023-09-08T19:19:33.446Z,5.00
2023-09-08T19:22:05.160Z,4.60
2023-09-08T19:24:38.140Z,5.10
2023-09-08T19:27:08.182Z,5.00
2023-09-08T19:29:37.071Z,4.90
2023-09-08T19:32:10.421Z,5.10
2023-09-08T19:34:39.381Z,5.20
2023-09-08T19:37:11.370Z,5.60
2023-09-08T19:39:40.545Z,5.00
2023-09-08T19:42:26.692Z,4.90
2023-09-08T19:45:01.079Z,4.90
2023-09-08T19:47:30.840Z,4.90
2023-09-08T19:52:46.789Z,5.40
2023-09-08T19:55:16.455Z,5.40
2023-09-08T19:57:45.325Z,5.40
2023-09-08T20:00:15.627Z,5.30
2023-09-08T20:02:51.006Z,4.90
2023-09-08T20:08:08.081Z,6.00
2023-09-08T20:10:39.901Z,6.80
2023-09-08T20:13:13.753Z,6.30
2023-09-08T20:15:43.623Z,6.40
2023-09-08T20:18:13.837Z,5.80
2023-09-08T20:20:42.865Z,5.60
2023-09-08T20:23:24.738Z,5.20
2023-09-08T20:25:51.977Z,5.40
2023-09-08T20:28:21.413Z,5.40
2023-09-08T20:31:13.152Z,5.80
2023-09-08T20:33:45.563Z,6.20
2023-09-08T20:36:17.398Z,6.20
2023-09-08T20:38:46.557Z,5.60
2023-09-08T20:41:15.849Z,5.90
2023-09-08T20:43:48.687Z,5.10
2023-09-08T20:48:43.544Z,6.00
2023-09-08T20:51:13.081Z,6.10
2023-09-08T20:53:58.533Z,6.40
2023-09-08T20:56:29.618Z,6.90
2023-09-08T20:59:03.256Z,7.20
2023-09-08T21:02:04.889Z,6.50
2023-09-08T21:04:46.329Z,5.80
2023-09-08T21:07:25.584Z,6.40
2023-09-08T21:09:54.527Z,6.80
2023-09-08T21:12:31.705Z,7.30
2023-09-08T21:15:08.368Z,7.30
2023-09-08T21:17:39.435Z,7.30
2023-09-08T21:20:08.915Z,7.80
2023-09-08T21:22:37.907Z,7.20
2023-09-08T21:25:15.573Z,7.20
2023-09-08T21:27:47.062Z,6.30
2023-09-08T21:30:19.432Z,6.00
2023-09-08T21:32:57.232Z,7.20
2023-09-08T21:35:29.169Z,6.60
2023-09-08T21:38:02.930Z,7.10
2023-09-08T21:40:41.349Z,7.30
2023-09-08T21:43:14.241Z,6.70
2023-09-08T21:45:44.362Z,7.00
2023-09-08T21:48:23.815Z,6.70
2023-09-08T21:51:04.156Z,6.90
2023-09-08T21:53:39.065Z,6.80
2023-09-08T21:56:11.029Z,6.80
2023-09-08T22:01:28.722Z,7.30
2023-09-08T22:04:03.164Z,6.60
2023-09-08T22:06:40.823Z,6.70
2023-09-08T22:09:10.664Z,6.10
2023-09-08T22:11:53.442Z,6.90
2023-09-08T22:14:24.755Z,7.40
2023-09-08T22:16:59.614Z,7.60
2023-09-08T22:19:29.235Z,7.70
2023-09-08T22:21:58.096Z,6.80
2023-09-08T22:24:29.530Z,7.10
2023-09-08T22:26:58.542Z,6.10
2023-09-08T22:29:27.543Z,6.30
2023-09-08T22:32:04.301Z,7.10
2023-09-08T22:34:33.401Z,7.30
2023-09-08T22:37:02.456Z,7.40
2023-09-08T22:39:38.461Z,8.10
2023-09-08T22:42:20.652Z,6.90
2023-09-08T22:44:49.648Z,6.70
2023-09-08T22:47:21.259Z,6.00
2023-09-08T22:50:00.351Z,7.40
2023-09-08T22:52:43.730Z,7.30
2023-09-08T22:55:23.380Z,7.50
2023-09-08T22:57:57.500Z,7.90
2023-09-08T23:00:35.498Z,7.60
2023-09-08T23:03:04.633Z,6.20
2023-09-08T23:05:39.901Z,5.90
2023-09-08T23:08:08.845Z,7.20
2023-09-08T23:10:46.681Z,7.50
2023-09-08T23:13:24.199Z,7.30
2023-09-08T23:15:53.368Z,7.50
2023-09-08T23:18:42.681Z,8.40
2023-09-08T23:21:32.121Z,7.60
2023-09-08T23:24:07.352Z,6.80
2023-09-08T23:29:08.045Z,7.70
2023-09-08T23:31:36.952Z,8.10
2023-09-08T23:34:13.679Z,7.90
2023-09-08T23:36:46.809Z,7.40
2023-09-08T23:39:17.164Z,7.30
2023-09-08T23:41:48.629Z,6.90
2023-09-08T23:44:20.952Z,7.70
2023-09-08T23:46:58.530Z,8.60
2023-09-08T23:49:32.856Z,9.00
2023-09-08T23:53:46.959Z,7.90
2023-09-08T23:56:14.896Z,7.90
2023-09-08T23:58:41.696Z,7.80
